sensor_id;sensor_type;location;lat;lon;timestamp;pressure;altitude;pressure_sealevel;temperature;humidity
65758;BME280;52495;52.208;5.158;2023-04-30T00:02:02;102327.00;;;9.11;77.22
65758;BME280;52495;52.208;5.158;2023-04-30T00:04:29;102317.34;;;8.96;78.71
65758;BME280;52495;52.208;5.158;2023-04-30T00:06:55;102317.97;;;8.78;79.23
65758;BME280;52495;52.208;5.158;2023-04-30T00:09:22;102320.44;;;8.71;79.68
65758;BME280;52495;52.208;5.158;2023-04-30T00:11:49;102322.97;;;8.69;80.78
65758;BME280;52495;52.208;5.158;2023-04-30T00:14:16;102332.44;;;8.70;80.80
65758;BME280;52495;52.208;5.158;2023-04-30T00:16:42;102325.56;;;8.69;81.29
65758;BME280;52495;52.208;5.158;2023-04-30T00:19:11;102330.69;;;8.69;81.11
65758;BME280;52495;52.208;5.158;2023-04-30T00:21:37;102330.66;;;8.66;80.92
65758;BME280;52495;52.208;5.158;2023-04-30T00:24:04;102328.13;;;8.69;81.16
65758;BME280;52495;52.208;5.158;2023-04-30T00:26:31;102316.94;;;8.65;81.35
65758;BME280;52495;52.208;5.158;2023-04-30T00:28:58;102328.00;;;8.60;81.04
65758;BME280;52495;52.208;5.158;2023-04-30T00:31:24;102324.59;;;8.64;81.44
65758;BME280;52495;52.208;5.158;2023-04-30T00:33:51;102323.75;;;8.63;81.04
65758;BME280;52495;52.208;5.158;2023-04-30T00:36:19;102326.31;;;8.62;81.27
65758;BME280;52495;52.208;5.158;2023-04-30T00:38:46;102326.22;;;8.57;81.38
65758;BME280;52495;52.208;5.158;2023-04-30T00:41:13;102330.47;;;8.55;81.80
65758;BME280;52495;52.208;5.158;2023-04-30T00:43:40;102337.41;;;8.59;81.55
65758;BME280;52495;52.208;5.158;2023-04-30T00:46:06;102348.56;;;8.58;81.28
65758;BME280;52495;52.208;5.158;2023-04-30T00:48:33;102343.53;;;8.66;80.67
65758;BME280;52495;52.208;5.158;2023-04-30T00:51:01;102350.41;;;8.65;80.94
65758;BME280;52495;52.208;5.158;2023-04-30T00:53:30;102351.22;;;8.64;80.52
65758;BME280;52495;52.208;5.158;2023-04-30T00:55:57;102354.66;;;8.65;79.66
65758;BME280;52495;52.208;5.158;2023-04-30T00:58:24;102344.34;;;8.63;79.80
65758;BME280;52495;52.208;5.158;2023-04-30T01:00:52;102351.06;;;8.54;80.29
65758;BME280;52495;52.208;5.158;2023-04-30T01:03:19;102342.28;;;8.42;80.64
65758;BME280;52495;52.208;5.158;2023-04-30T01:05:47;102349.81;;;8.31;81.11
65758;BME280;52495;52.208;5.158;2023-04-30T01:08:14;102352.34;;;8.28;81.31
65758;BME280;52495;52.208;5.158;2023-04-30T01:10:47;102355.63;;;8.18;81.69
65758;BME280;52495;52.208;5.158;2023-04-30T01:13:23;102354.63;;;8.11;82.65
65758;BME280;52495;52.208;5.158;2023-04-30T01:15:56;102354.66;;;8.13;82.38
65758;BME280;52495;52.208;5.158;2023-04-30T01:18:28;102354.66;;;8.14;81.85
65758;BME280;52495;52.208;5.158;2023-04-30T01:21:00;102357.22;;;8.13;82.29
65758;BME280;52495;52.208;5.158;2023-04-30T01:23:41;102356.41;;;8.15;81.97
65758;BME280;52495;52.208;5.158;2023-04-30T01:26:19;102352.00;;;8.08;81.67
65758;BME280;52495;52.208;5.158;2023-04-30T01:28:55;102355.34;;;8.02;82.26
65758;BME280;52495;52.208;5.158;2023-04-30T01:31:23;102360.44;;;8.01;83.05
65758;BME280;52495;52.208;5.158;2023-04-30T01:33:49;102363.84;;;7.98;82.47
65758;BME280;52495;52.208;5.158;2023-04-30T01:36:30;102351.78;;;7.96;82.91
65758;BME280;52495;52.208;5.158;2023-04-30T01:39:08;102357.66;;;7.90;83.56
65758;BME280;52495;52.208;5.158;2023-04-30T01:41:40;102356.06;;;7.95;83.96
65758;BME280;52495;52.208;5.158;2023-04-30T01:44:20;102357.94;;;8.05;83.89
65758;BME280;52495;52.208;5.158;2023-04-30T01:46:55;102357.16;;;8.10;84.29
65758;BME280;52495;52.208;5.158;2023-04-30T01:49:31;102358.97;;;8.14;84.61
65758;BME280;52495;52.208;5.158;2023-04-30T01:52:02;102358.19;;;8.18;84.58
65758;BME280;52495;52.208;5.158;2023-04-30T01:54:39;102356.59;;;8.26;84.78
65758;BME280;52495;52.208;5.158;2023-04-30T01:57:15;102366.22;;;8.37;84.49
65758;BME280;52495;52.208;5.158;2023-04-30T01:59:45;102355.22;;;8.45;84.74
65758;BME280;52495;52.208;5.158;2023-04-30T02:02:12;102360.34;;;8.45;84.45
65758;BME280;52495;52.208;5.158;2023-04-30T02:04:39;102360.53;;;8.55;84.11
65758;BME280;52495;52.208;5.158;2023-04-30T02:07:06;102357.22;;;8.62;84.19
65758;BME280;52495;52.208;5.158;2023-04-30T02:09:32;102354.63;;;8.62;84.46
65758;BME280;52495;52.208;5.158;2023-04-30T02:11:59;102358.91;;;8.63;84.54
65758;BME280;52495;52.208;5.158;2023-04-30T02:14:29;102358.06;;;8.64;84.64
65758;BME280;52495;52.208;5.158;2023-04-30T02:16:57;102363.22;;;8.62;84.30
65758;BME280;52495;52.208;5.158;2023-04-30T02:19:24;102357.22;;;8.62;84.98
65758;BME280;52495;52.208;5.158;2023-04-30T02:21:52;102362.31;;;8.60;84.77
65758;BME280;52495;52.208;5.158;2023-04-30T02:24:19;102355.44;;;8.59;84.35
65758;BME280;52495;52.208;5.158;2023-04-30T02:26:45;102358.78;;;8.54;83.94
65758;BME280;52495;52.208;5.158;2023-04-30T02:29:12;102350.94;;;8.47;84.11
65758;BME280;52495;52.208;5.158;2023-04-30T02:31:39;102353.44;;;8.43;83.96
65758;BME280;52495;52.208;5.158;2023-04-30T02:34:10;102356.66;;;8.31;83.85
65758;BME280;52495;52.208;5.158;2023-04-30T02:36:37;102355.75;;;8.27;84.86
65758;BME280;52495;52.208;5.158;2023-04-30T02:39:04;102356.53;;;8.23;84.75
65758;BME280;52495;52.208;5.158;2023-04-30T02:41:31;102353.16;;;8.26;84.66
65758;BME280;52495;52.208;5.158;2023-04-30T02:43:57;102355.56;;;8.15;85.17
65758;BME280;52495;52.208;5.158;2023-04-30T02:46:24;102348.66;;;8.14;84.92
65758;BME280;52495;52.208;5.158;2023-04-30T02:48:51;102342.56;;;8.07;84.80
65758;BME280;52495;52.208;5.158;2023-04-30T02:51:19;102336.47;;;8.03;85.17
65758;BME280;52495;52.208;5.158;2023-04-30T02:53:45;102344.16;;;8.00;85.52
65758;BME280;52495;52.208;5.158;2023-04-30T02:56:12;102351.81;;;7.97;86.11
65758;BME280;52495;52.208;5.158;2023-04-30T02:58:39;102348.41;;;7.98;86.65
65758;BME280;52495;52.208;5.158;2023-04-30T03:01:06;102344.19;;;8.03;86.21
65758;BME280;52495;52.208;5.158;2023-04-30T03:03:32;102344.16;;;8.00;88.97
65758;BME280;52495;52.208;5.158;2023-04-30T03:05:59;102341.59;;;8.00;89.84
65758;BME280;52495;52.208;5.158;2023-04-30T03:08:27;102336.50;;;8.05;89.69
65758;BME280;52495;52.208;5.158;2023-04-30T03:10:54;102346.03;;;8.09;90.06
65758;BME280;52495;52.208;5.158;2023-04-30T03:13:21;102346.13;;;8.15;89.51
65758;BME280;52495;52.208;5.158;2023-04-30T03:15:56;102350.56;;;8.24;88.14
65758;BME280;52495;52.208;5.158;2023-04-30T03:18:23;102349.56;;;8.16;89.70
65758;BME280;52495;52.208;5.158;2023-04-30T03:20:50;102335.03;;;8.18;89.84
65758;BME280;52495;52.208;5.158;2023-04-30T03:23:16;102335.09;;;8.23;89.95
65758;BME280;52495;52.208;5.158;2023-04-30T03:25:46;102336.78;;;8.22;89.49
65758;BME280;52495;52.208;5.158;2023-04-30T03:28:13;102345.38;;;8.23;89.54
65758;BME280;52495;52.208;5.158;2023-04-30T03:30:40;102336.78;;;8.20;88.74
65758;BME280;52495;52.208;5.158;2023-04-30T03:33:07;102340.97;;;8.14;88.80
65758;BME280;52495;52.208;5.158;2023-04-30T03:35:34;102340.06;;;8.12;87.82
65758;BME280;52495;52.208;5.158;2023-04-30T03:38:01;102332.28;;;8.09;87.34
65758;BME280;52495;52.208;5.158;2023-04-30T03:40:29;102327.88;;;8.01;86.98
65758;BME280;52495;52.208;5.158;2023-04-30T03:42:57;102326.03;;;7.93;86.68
65758;BME280;52495;52.208;5.158;2023-04-30T03:45:24;102330.97;;;7.82;86.94
65758;BME280;52495;52.208;5.158;2023-04-30T03:47:51;102332.56;;;7.77;87.42
65758;BME280;52495;52.208;5.158;2023-04-30T03:50:18;102329.03;;;7.71;88.55
65758;BME280;52495;52.208;5.158;2023-04-30T03:52:44;102330.75;;;7.71;88.75
65758;BME280;52495;52.208;5.158;2023-04-30T03:55:13;102330.78;;;7.72;89.00
65758;BME280;52495;52.208;5.158;2023-04-30T03:57:40;102337.69;;;7.75;89.06
65758;BME280;52495;52.208;5.158;2023-04-30T04:00:10;102331.59;;;7.71;90.38
65758;BME280;52495;52.208;5.158;2023-04-30T04:02:45;102333.34;;;7.72;90.20
65758;BME280;52495;52.208;5.158;2023-04-30T04:05:12;102332.50;;;7.72;89.89
65758;BME280;52495;52.208;5.158;2023-04-30T04:07:39;102326.44;;;7.68;89.42
65758;BME280;52495;52.208;5.158;2023-04-30T04:10:06;102329.03;;;7.71;89.10
65758;BME280;52495;52.208;5.158;2023-04-30T04:12:33;102317.84;;;7.68;88.39
65758;BME280;52495;52.208;5.158;2023-04-30T04:15:00;102322.91;;;7.63;87.71
65758;BME280;52495;52.208;5.158;2023-04-30T04:17:28;102327.13;;;7.59;88.25
65758;BME280;52495;52.208;5.158;2023-04-30T04:19:55;102329.72;;;7.63;88.25
65758;BME280;52495;52.208;5.158;2023-04-30T04:22:22;102332.28;;;7.59;87.29
65758;BME280;52495;52.208;5.158;2023-04-30T04:24:49;102332.16;;;7.55;86.20
65758;BME280;52495;52.208;5.158;2023-04-30T04:27:19;102320.81;;;7.43;85.04
65758;BME280;52495;52.208;5.158;2023-04-30T04:29:46;102322.31;;;7.34;84.79
65758;BME280;52495;52.208;5.158;2023-04-30T04:32:13;102323.97;;;7.30;84.87
65758;BME280;52495;52.208;5.158;2023-04-30T04:34:42;102324.66;;;7.23;85.53
65758;BME280;52495;52.208;5.158;2023-04-30T04:37:10;102327.97;;;7.17;86.32
65758;BME280;52495;52.208;5.158;2023-04-30T04:39:37;102325.28;;;7.11;87.73
65758;BME280;52495;52.208;5.158;2023-04-30T04:42:04;102330.47;;;7.12;87.89
65758;BME280;52495;52.208;5.158;2023-04-30T04:44:31;102330.53;;;7.16;88.07
65758;BME280;52495;52.208;5.158;2023-04-30T04:46:57;102330.56;;;7.17;89.21
65758;BME280;52495;52.208;5.158;2023-04-30T04:49:24;102339.19;;;7.21;89.13
65758;BME280;52495;52.208;5.158;2023-04-30T04:51:52;102334.09;;;7.22;89.02
65758;BME280;52495;52.208;5.158;2023-04-30T04:54:19;102342.72;;;7.26;89.34
65758;BME280;52495;52.208;5.158;2023-04-30T04:56:46;102345.38;;;7.29;89.62
65758;BME280;52495;52.208;5.158;2023-04-30T04:59:16;102343.69;;;7.31;90.15
65758;BME280;52495;52.208;5.158;2023-04-30T05:01:44;102336.97;;;7.38;90.04
65758;BME280;52495;52.208;5.158;2023-04-30T05:04:10;102331.84;;;7.39;89.96
65758;BME280;52495;52.208;5.158;2023-04-30T05:06:38;102325.94;;;7.42;89.26
65758;BME280;52495;52.208;5.158;2023-04-30T05:09:06;102332.06;;;7.49;89.73
65758;BME280;52495;52.208;5.158;2023-04-30T05:11:34;102334.72;;;7.55;89.40
65758;BME280;52495;52.208;5.158;2023-04-30T05:14:01;102341.59;;;7.54;90.22
65758;BME280;52495;52.208;5.158;2023-04-30T05:16:28;102335.72;;;7.62;89.76
65758;BME280;52495;52.208;5.158;2023-04-30T05:18:55;102328.88;;;7.62;90.84
65758;BME280;52495;52.208;5.158;2023-04-30T05:21:21;102341.00;;;7.69;91.31
65758;BME280;52495;52.208;5.158;2023-04-30T05:23:50;102342.91;;;7.80;91.34
65758;BME280;52495;52.208;5.158;2023-04-30T05:26:18;102346.44;;;7.85;91.62
65758;BME280;52495;52.208;5.158;2023-04-30T05:28:45;102350.91;;;7.94;91.14
65758;BME280;52495;52.208;5.158;2023-04-30T05:31:11;102341.63;;;8.03;89.87
65758;BME280;52495;52.208;5.158;2023-04-30T05:33:38;102351.94;;;8.05;91.41
65758;BME280;52495;52.208;5.158;2023-04-30T05:36:05;102360.63;;;8.12;91.96
65758;BME280;52495;52.208;5.158;2023-04-30T05:38:32;102353.06;;;8.21;91.64
65758;BME280;52495;52.208;5.158;2023-04-30T05:40:59;102358.38;;;8.30;91.78
65758;BME280;52495;52.208;5.158;2023-04-30T05:43:27;102367.19;;;8.43;91.53
65758;BME280;52495;52.208;5.158;2023-04-30T05:45:53;102367.34;;;8.51;91.41
65758;BME280;52495;52.208;5.158;2023-04-30T05:48:20;102370.88;;;8.59;91.02
65758;BME280;52495;52.208;5.158;2023-04-30T05:50:47;102371.03;;;8.69;89.77
65758;BME280;52495;52.208;5.158;2023-04-30T05:53:13;102365.13;;;8.74;90.08
65758;BME280;52495;52.208;5.158;2023-04-30T05:55:40;102360.88;;;8.76;89.82
65758;BME280;52495;52.208;5.158;2023-04-30T05:58:07;102368.78;;;8.90;88.87
65758;BME280;52495;52.208;5.158;2023-04-30T06:00:35;102361.94;;;8.91;88.54
65758;BME280;52495;52.208;5.158;2023-04-30T06:03:03;102374.88;;;8.97;88.79
65758;BME280;52495;52.208;5.158;2023-04-30T06:05:30;102361.28;;;9.07;88.18
65758;BME280;52495;52.208;5.158;2023-04-30T06:07:56;102360.47;;;9.10;87.61
65758;BME280;52495;52.208;5.158;2023-04-30T06:10:23;102367.38;;;9.13;87.22
65758;BME280;52495;52.208;5.158;2023-04-30T06:12:50;102370.91;;;9.21;87.09
65758;BME280;52495;52.208;5.158;2023-04-30T06:15:17;102371.94;;;9.34;86.27
65758;BME280;52495;52.208;5.158;2023-04-30T06:17:45;102371.94;;;9.35;85.64
65758;BME280;52495;52.208;5.158;2023-04-30T06:20:12;102371.16;;;9.41;86.65
65758;BME280;52495;52.208;5.158;2023-04-30T06:22:39;102372.13;;;9.51;86.55
65758;BME280;52495;52.208;5.158;2023-04-30T06:25:07;102374.06;;;9.67;85.16
65758;BME280;52495;52.208;5.158;2023-04-30T06:27:34;102368.13;;;9.76;84.22
65758;BME280;52495;52.208;5.158;2023-04-30T06:30:01;102371.56;;;9.75;83.89
65758;BME280;52495;52.208;5.158;2023-04-30T06:32:27;102375.09;;;9.83;83.87
65758;BME280;52495;52.208;5.158;2023-04-30T06:34:55;102373.47;;;9.95;83.41
65758;BME280;52495;52.208;5.158;2023-04-30T06:37:22;102369.16;;;9.94;83.02
65758;BME280;52495;52.208;5.158;2023-04-30T06:39:49;102369.25;;;9.98;82.35
65758;BME280;52495;52.208;5.158;2023-04-30T06:42:16;102377.06;;;10.08;82.45
65758;BME280;52495;52.208;5.158;2023-04-30T06:44:42;102371.94;;;10.12;82.07
65758;BME280;52495;52.208;5.158;2023-04-30T06:47:10;102372.91;;;10.24;82.51
65758;BME280;52495;52.208;5.158;2023-04-30T06:49:37;102376.41;;;10.32;82.31
65758;BME280;52495;52.208;5.158;2023-04-30T06:52:05;102374.78;;;10.39;81.08
65758;BME280;52495;52.208;5.158;2023-04-30T06:54:32;102381.75;;;10.46;80.42
65758;BME280;52495;52.208;5.158;2023-04-30T06:56:59;102383.50;;;10.50;80.11
65758;BME280;52495;52.208;5.158;2023-04-30T06:59:26;102372.38;;;10.59;79.56
65758;BME280;52495;52.208;5.158;2023-04-30T07:01:53;102373.28;;;10.69;79.33
65758;BME280;52495;52.208;5.158;2023-04-30T07:04:19;102375.97;;;10.81;78.84
65758;BME280;52495;52.208;5.158;2023-04-30T07:06:46;102376.88;;;10.89;78.25
65758;BME280;52495;52.208;5.158;2023-04-30T07:09:14;102382.06;;;10.91;78.20
65758;BME280;52495;52.208;5.158;2023-04-30T07:11:41;102385.56;;;11.04;77.66
65758;BME280;52495;52.208;5.158;2023-04-30T07:14:09;102386.53;;;11.18;77.34
65758;BME280;52495;52.208;5.158;2023-04-30T07:16:36;102386.56;;;11.26;76.07
65758;BME280;52495;52.208;5.158;2023-04-30T07:19:03;102381.41;;;11.28;74.74
65758;BME280;52495;52.208;5.158;2023-04-30T07:21:29;102383.16;;;11.36;74.52
65758;BME280;52495;52.208;5.158;2023-04-30T07:23:57;102384.88;;;11.39;75.11
65758;BME280;52495;52.208;5.158;2023-04-30T07:26:25;102383.16;;;11.32;75.41
65758;BME280;52495;52.208;5.158;2023-04-30T07:28:51;102388.31;;;11.33;75.43
65758;BME280;52495;52.208;5.158;2023-04-30T07:31:18;102385.75;;;11.41;75.65
65758;BME280;52495;52.208;5.158;2023-04-30T07:33:45;102384.97;;;11.62;73.92
65758;BME280;52495;52.208;5.158;2023-04-30T07:36:13;102381.53;;;11.60;74.36
65758;BME280;52495;52.208;5.158;2023-04-30T07:38:40;102381.56;;;11.69;74.41
65758;BME280;52495;52.208;5.158;2023-04-30T07:41:07;102372.94;;;11.80;73.97
65758;BME280;52495;52.208;5.158;2023-04-30T07:43:35;102381.66;;;12.04;72.75
65758;BME280;52495;52.208;5.158;2023-04-30T07:46:02;102374.75;;;12.07;72.15
65758;BME280;52495;52.208;5.158;2023-04-30T07:48:29;102367.00;;;12.09;71.95
65758;BME280;52495;52.208;5.158;2023-04-30T07:50:56;102371.31;;;12.10;72.73
65758;BME280;52495;52.208;5.158;2023-04-30T07:53:23;102367.00;;;12.17;72.75
65758;BME280;52495;52.208;5.158;2023-04-30T07:55:49;102378.22;;;12.33;72.32
65758;BME280;52495;52.208;5.158;2023-04-30T07:58:16;102371.31;;;12.39;70.74
65758;BME280;52495;52.208;5.158;2023-04-30T08:00:44;102362.69;;;12.50;70.78
65758;BME280;52495;52.208;5.158;2023-04-30T08:03:11;102369.56;;;12.65;69.65
65758;BME280;52495;52.208;5.158;2023-04-30T08:05:38;102368.72;;;12.61;68.87
65758;BME280;52495;52.208;5.158;2023-04-30T08:08:05;102363.53;;;12.69;68.93
65758;BME280;52495;52.208;5.158;2023-04-30T08:10:32;102367.84;;;12.79;68.70
65758;BME280;52495;52.208;5.158;2023-04-30T08:12:59;102357.41;;;13.01;65.75
65758;BME280;52495;52.208;5.158;2023-04-30T08:15:26;102364.38;;;12.88;66.07
65758;BME280;52495;52.208;5.158;2023-04-30T08:17:54;102363.50;;;12.80;66.25
65758;BME280;52495;52.208;5.158;2023-04-30T08:20:21;102363.50;;;12.87;66.59
65758;BME280;52495;52.208;5.158;2023-04-30T08:22:48;102365.25;;;12.84;65.46
65758;BME280;52495;52.208;5.158;2023-04-30T08:25:15;102373.00;;;12.98;66.40
65758;BME280;52495;52.208;5.158;2023-04-30T08:27:42;102362.56;;;13.12;68.96
65758;BME280;52495;52.208;5.158;2023-04-30T08:30:10;102369.44;;;13.24;66.13
65758;BME280;52495;52.208;5.158;2023-04-30T08:32:37;102365.91;;;13.45;63.72
65758;BME280;52495;52.208;5.158;2023-04-30T08:35:06;102360.75;;;13.39;63.56
65758;BME280;52495;52.208;5.158;2023-04-30T08:37:33;102362.38;;;13.58;62.64
65758;BME280;52495;52.208;5.158;2023-04-30T08:40:00;102363.28;;;13.53;63.27
65758;BME280;52495;52.208;5.158;2023-04-30T08:42:36;102366.72;;;13.64;62.60
65758;BME280;52495;52.208;5.158;2023-04-30T08:45:03;102361.53;;;13.64;62.33
65758;BME280;52495;52.208;5.158;2023-04-30T08:47:30;102363.25;;;13.65;61.39
65758;BME280;52495;52.208;5.158;2023-04-30T08:49:57;102354.59;;;13.64;60.38
65758;BME280;52495;52.208;5.158;2023-04-30T08:52:27;102363.25;;;13.60;62.43
65758;BME280;52495;52.208;5.158;2023-04-30T08:54:56;102362.25;;;13.85;61.31
65758;BME280;52495;52.208;5.158;2023-04-30T08:57:23;102357.03;;;13.88;61.15
65758;BME280;52495;52.208;5.158;2023-04-30T08:59:50;102357.84;;;13.98;59.89
65758;BME280;52495;52.208;5.158;2023-04-30T09:02:17;102359.56;;;13.99;59.81
65758;BME280;52495;52.208;5.158;2023-04-30T09:04:43;102353.47;;;14.01;60.82
65758;BME280;52495;52.208;5.158;2023-04-30T09:07:12;102357.72;;;14.15;60.22
65758;BME280;52495;52.208;5.158;2023-04-30T09:09:40;102360.16;;;14.32;59.21
65758;BME280;52495;52.208;5.158;2023-04-30T09:12:11;102355.03;;;14.24;59.51
65758;BME280;52495;52.208;5.158;2023-04-30T09:14:56;102359.38;;;14.25;60.61
65758;BME280;52495;52.208;5.158;2023-04-30T09:17:24;102349.78;;;14.33;60.79
65758;BME280;52495;52.208;5.158;2023-04-30T09:19:51;102358.25;;;14.55;60.01
65758;BME280;52495;52.208;5.158;2023-04-30T09:22:19;102352.16;;;14.60;59.97
65758;BME280;52495;52.208;5.158;2023-04-30T09:24:48;102348.56;;;14.71;59.65
65758;BME280;52495;52.208;5.158;2023-04-30T09:27:17;102347.63;;;14.82;59.67
65758;BME280;52495;52.208;5.158;2023-04-30T09:29:44;102339.63;;;14.97;59.41
65758;BME280;52495;52.208;5.158;2023-04-30T09:32:11;102341.09;;;15.18;57.34
65758;BME280;52495;52.208;5.158;2023-04-30T09:34:39;102345.50;;;15.13;58.18
65758;BME280;52495;52.208;5.158;2023-04-30T09:37:09;102338.59;;;15.11;58.23
65758;BME280;52495;52.208;5.158;2023-04-30T09:39:47;102338.50;;;15.18;58.37
65758;BME280;52495;52.208;5.158;2023-04-30T09:42:15;102331.47;;;15.25;57.52
65758;BME280;52495;52.208;5.158;2023-04-30T09:44:43;102328.84;;;15.28;58.39
65758;BME280;52495;52.208;5.158;2023-04-30T09:47:10;102335.69;;;15.36;57.35
65758;BME280;52495;52.208;5.158;2023-04-30T09:49:40;102327.94;;;15.31;57.07
65758;BME280;52495;52.208;5.158;2023-04-30T09:52:08;102327.16;;;15.26;57.59
65758;BME280;52495;52.208;5.158;2023-04-30T09:54:45;102328.13;;;15.17;57.51
65758;BME280;52495;52.208;5.158;2023-04-30T09:57:16;102321.81;;;15.35;57.86
65758;BME280;52495;52.208;5.158;2023-04-30T09:59:45;102320.66;;;15.56;57.15
65758;BME280;52495;52.208;5.158;2023-04-30T10:02:14;102317.09;;;15.63;55.75
65758;BME280;52495;52.208;5.158;2023-04-30T10:04:44;102322.34;;;15.60;55.51
65758;BME280;52495;52.208;5.158;2023-04-30T10:07:15;102317.88;;;15.67;56.60
65758;BME280;52495;52.208;5.158;2023-04-30T10:09:47;102319.41;;;15.81;54.63
65758;BME280;52495;52.208;5.158;2023-04-30T10:12:21;102313.41;;;15.77;54.48
65758;BME280;52495;52.208;5.158;2023-04-30T10:14:53;102312.56;;;15.75;54.35
65758;BME280;52495;52.208;5.158;2023-04-30T10:17:25;102308.31;;;15.71;54.86
65758;BME280;52495;52.208;5.158;2023-04-30T10:20:00;102306.47;;;15.77;54.81
65758;BME280;52495;52.208;5.158;2023-04-30T10:22:29;102302.22;;;15.70;55.43
65758;BME280;52495;52.208;5.158;2023-04-30T10:24:58;102306.44;;;15.79;55.31
65758;BME280;52495;52.208;5.158;2023-04-30T10:27:28;102299.47;;;15.81;55.57
65758;BME280;52495;52.208;5.158;2023-04-30T10:29:55;102305.25;;;16.00;56.11
65758;BME280;52495;52.208;5.158;2023-04-30T10:32:22;102298.16;;;16.10;54.81
65758;BME280;52495;52.208;5.158;2023-04-30T10:35:11;102288.47;;;16.18;54.57
65758;BME280;52495;52.208;5.158;2023-04-30T10:37:46;102292.53;;;16.33;54.61
65758;BME280;52495;52.208;5.158;2023-04-30T10:40:15;102296.59;;;16.48;53.98
65758;BME280;52495;52.208;5.158;2023-04-30T10:42:46;102290.63;;;16.43;54.84
65758;BME280;52495;52.208;5.158;2023-04-30T10:45:14;102284.31;;;16.57;54.32
65758;BME280;52495;52.208;5.158;2023-04-30T10:47:41;102285.09;;;16.60;53.76
65758;BME280;52495;52.208;5.158;2023-04-30T10:50:10;102277.06;;;16.69;54.11
65758;BME280;52495;52.208;5.158;2023-04-30T10:52:38;102277.63;;;16.86;53.24
65758;BME280;52495;52.208;5.158;2023-04-30T10:55:06;102271.50;;;16.88;53.49
65758;BME280;52495;52.208;5.158;2023-04-30T10:57:39;102277.34;;;17.01;53.27
65758;BME280;52495;52.208;5.158;2023-04-30T11:00:19;102258.56;;;17.24;51.31
65758;BME280;52495;52.208;5.158;2023-04-30T11:02:55;102261.41;;;17.13;51.38
65758;BME280;52495;52.208;5.158;2023-04-30T11:05:34;102269.22;;;17.15;52.29
65758;BME280;52495;52.208;5.158;2023-04-30T11:08:02;102261.13;;;17.27;51.80
65758;BME280;52495;52.208;5.158;2023-04-30T11:10:32;102256.53;;;17.37;50.84
65758;BME280;52495;52.208;5.158;2023-04-30T11:13:03;102258.03;;;17.48;50.55
65758;BME280;52495;52.208;5.158;2023-04-30T11:15:33;102245.28;;;17.35;48.47
65758;BME280;52495;52.208;5.158;2023-04-30T11:18:01;102243.44;;;17.39;49.70
65758;BME280;52495;52.208;5.158;2023-04-30T11:20:28;102238.09;;;17.45;49.40
65758;BME280;52495;52.208;5.158;2023-04-30T11:23:08;102233.56;;;17.52;49.69
65758;BME280;52495;52.208;5.158;2023-04-30T11:25:40;102231.28;;;17.75;49.75
65758;BME280;52495;52.208;5.158;2023-04-30T11:28:10;102229.38;;;17.81;49.74
65758;BME280;52495;52.208;5.158;2023-04-30T11:30:41;102227.50;;;17.86;49.38
65758;BME280;52495;52.208;5.158;2023-04-30T11:33:08;102224.91;;;17.86;49.36
65758;BME280;52495;52.208;5.158;2023-04-30T11:35:37;102220.31;;;17.94;48.45
65758;BME280;52495;52.208;5.158;2023-04-30T11:38:04;102225.34;;;18.03;48.65
65758;BME280;52495;52.208;5.158;2023-04-30T11:40:34;102218.16;;;18.12;49.32
65758;BME280;52495;52.208;5.158;2023-04-30T11:43:02;102204.06;;;18.17;48.58
65758;BME280;52495;52.208;5.158;2023-04-30T11:45:29;102206.72;;;18.16;49.39
65758;BME280;52495;52.208;5.158;2023-04-30T11:47:57;102199.47;;;18.26;49.32
65758;BME280;52495;52.208;5.158;2023-04-30T11:50:31;102206.47;;;18.25;49.06
65758;BME280;52495;52.208;5.158;2023-04-30T11:52:59;102207.25;;;18.29;48.81
65758;BME280;52495;52.208;5.158;2023-04-30T11:55:28;102200.09;;;18.35;49.31
65758;BME280;52495;52.208;5.158;2023-04-30T11:57:56;102193.88;;;18.40;48.27
65758;BME280;52495;52.208;5.158;2023-04-30T12:00:28;102185.59;;;18.55;47.80
65758;BME280;52495;52.208;5.158;2023-04-30T12:02:59;102186.84;;;18.72;47.59
65758;BME280;52495;52.208;5.158;2023-04-30T12:05:30;102195.81;;;18.63;48.01
65758;BME280;52495;52.208;5.158;2023-04-30T12:07:59;102183.91;;;18.53;47.40
65758;BME280;52495;52.208;5.158;2023-04-30T12:10:30;102190.66;;;18.30;48.37
65758;BME280;52495;52.208;5.158;2023-04-30T12:12:57;102182.22;;;18.20;48.16
65758;BME280;52495;52.208;5.158;2023-04-30T12:15:25;102175.81;;;18.30;48.69
65758;BME280;52495;52.208;5.158;2023-04-30T12:17:53;102180.19;;;18.30;48.12
65758;BME280;52495;52.208;5.158;2023-04-30T12:20:23;102177.50;;;18.33;46.94
65758;BME280;52495;52.208;5.158;2023-04-30T12:22:51;102174.59;;;18.11;47.79
65758;BME280;52495;52.208;5.158;2023-04-30T12:25:19;102176.00;;;18.24;47.64
65758;BME280;52495;52.208;5.158;2023-04-30T12:27:47;102161.81;;;18.33;47.99
65758;BME280;52495;52.208;5.158;2023-04-30T12:30:17;102164.75;;;18.52;47.77
65758;BME280;52495;52.208;5.158;2023-04-30T12:32:48;102151.25;;;18.66;47.03
65758;BME280;52495;52.208;5.158;2023-04-30T12:35:16;102153.44;;;18.80;47.40
65758;BME280;52495;52.208;5.158;2023-04-30T12:37:46;102166.50;;;18.80;45.57
65758;BME280;52495;52.208;5.158;2023-04-30T12:40:14;102156.66;;;18.60;45.41
65758;BME280;52495;52.208;5.158;2023-04-30T12:42:41;102156.72;;;18.58;46.54
65758;BME280;52495;52.208;5.158;2023-04-30T12:45:09;102151.66;;;18.52;47.24
65758;BME280;52495;52.208;5.158;2023-04-30T12:47:38;102150.81;;;18.52;47.45
65758;BME280;52495;52.208;5.158;2023-04-30T12:50:08;102146.84;;;18.38;47.24
65758;BME280;52495;52.208;5.158;2023-04-30T12:52:37;102144.47;;;18.59;46.96
65758;BME280;52495;52.208;5.158;2023-04-30T12:55:16;102138.09;;;18.69;45.52
65758;BME280;52495;52.208;5.158;2023-04-30T12:58:05;102144.31;;;18.65;46.37
65758;BME280;52495;52.208;5.158;2023-04-30T13:00:45;102137.63;;;18.55;46.00
65758;BME280;52495;52.208;5.158;2023-04-30T13:03:14;102138.44;;;18.57;46.01